Time;durP1;ratioP1;P1;durP2;ratioP2;P2;SDS_P1;SDS_P2;PMS_P1;PMS_P2;Temp;Humidity;BMP_temperature;BMP_pressure;BME280_temperature;BME280_humidity;BME280_pressure;Samples;Min_cycle;Max_cycle;Signal;HPM_P1;HPM_P2
2022/11/13 00:00:57;;;;;;;;;;;7.70;97.20;;;;;;21149525;28;19908;-66
2022/11/13 00:11:19;;;;;;;;;;;7.80;98.30;;;;;;21125274;28;19964;-69
2022/11/13 00:21:40;;;;;;;;;;;7.90;97.00;;;;;;21147499;28;20330;-53
2022/11/13 00:32:00;;;;;;;;;;;7.80;97.30;;;;;;21147024;28;19911;-68
2022/11/13 00:42:22;;;;;;;;;;;7.50;98.20;;;;;;21131799;28;19933;-55
2022/11/13 00:52:43;;;;;;;;;;;7.30;97.80;;;;;;21137163;28;19919;-55
2022/11/13 01:03:03;;;;;;;;;;;7.20;97.70;;;;;;21144891;28;20350;-55
2022/11/13 01:13:24;;;;;;;;;;;7.00;97.90;;;;;;21143524;28;19969;-67
2022/11/13 01:23:45;;;;;;;;;;;6.90;98.30;;;;;;21134187;28;19911;-57
2022/11/13 01:34:06;;;;;;;;;;;6.60;98.30;;;;;;21141749;28;19912;-57
2022/11/13 01:44:45;;;;;;;;;;;6.30;99.50;;;;;;21051165;28;19930;-66
2022/11/13 01:55:11;;;;;;;;;;;5.70;99.90;;;;;;21096697;28;19915;-53
2022/11/13 02:05:32;;;;;;;;;;;5.30;99.90;;;;;;21130108;28;19965;-57
2022/11/13 02:15:53;;;;;;;;;;;5.30;99.90;;;;;;21118174;22;19982;-57
2022/11/13 02:26:14;;;;;;;;;;;5.60;99.90;;;;;;20949586;22;20268;-60
2022/11/13 02:36:35;;;;;;;;;;;6.20;99.90;;;;;;21073719;22;19925;-56
2022/11/13 02:46:57;;;;;;;;;;;6.30;99.90;;;;;;21024347;22;20363;-60
2022/11/13 02:57:17;;;;;;;;;;;6.00;99.90;;;;;;21036829;22;19933;-53
2022/11/13 03:07:41;;;;;;;;;;;5.80;99.90;;;;;;21082358;22;20158;-59
2022/11/13 03:18:06;;;;;;;;;;;5.30;99.90;;;;;;21014856;22;20398;-59
2022/11/13 03:28:26;;;;;;;;;;;4.50;99.90;;;;;;21086241;22;19947;-53
2022/11/13 03:38:47;;;;;;;;;;;4.20;99.90;;;;;;21093445;22;19924;-59
2022/11/13 03:49:08;;;;;;;;;;;4.00;99.90;;;;;;21053602;22;19924;-55
2022/11/13 03:59:29;;;;;;;;;;;4.10;99.90;;;;;;21071349;22;19921;-58
2022/11/13 04:09:49;;;;;;;;;;;4.10;99.90;;;;;;21093621;22;19974;-65
2022/11/13 04:31:08;;;;;;;;;;;4.10;99.90;;;;;;21024734;22;20271;-59
2022/11/13 04:52:40;;;;;;;;;;;4.00;99.90;;;;;;21019831;22;20373;-58
2022/11/13 05:03:05;;;;;;;;;;;4.40;99.90;;;;;;20989740;22;20802;-54
2022/11/13 05:13:26;;;;;;;;;;;4.40;99.90;;;;;;21162234;22;19928;-59
2022/11/13 05:23:46;;;;;;;;;;;4.30;99.90;;;;;;21074662;22;20263;-54
2022/11/13 05:34:07;;;;;;;;;;;4.20;99.90;;;;;;21205507;22;19920;-54
2022/11/13 05:44:28;;;;;;;;;;;4.10;99.90;;;;;;21204779;22;19931;-59
2022/11/13 05:55:04;;;;;;;;;;;4.60;99.90;;;;;;21146774;22;19925;-59
2022/11/13 06:05:26;;;;;;;;;;;5.30;99.90;;;;;;21042445;22;19971;-67
2022/11/13 06:15:46;;;;;;;;;;;4.50;99.90;;;;;;21084012;22;19978;-59
2022/11/13 06:26:10;;;;;;;;;;;3.80;99.90;;;;;;21159583;22;19921;-65
2022/11/13 06:36:33;;;;;;;;;;;3.50;99.90;;;;;;21110806;22;19924;-60
2022/11/13 06:46:53;;;;;;;;;;;3.30;99.90;;;;;;21137145;22;19920;-54
2022/11/13 06:57:14;;;;;;;;;;;4.80;99.90;;;;;;21057933;22;19908;-59
2022/11/13 07:07:44;;;;;;;;;;;5.80;99.90;;;;;;21070556;22;19928;-58
2022/11/13 07:18:06;;;;;;;;;;;5.60;99.90;;;;;;21052055;22;20336;-54
2022/11/13 07:28:31;;;;;;;;;;;5.40;99.90;;;;;;21085836;22;19928;-58
2022/11/13 07:38:52;;;;;;;;;;;6.30;99.90;;;;;;21076350;22;19924;-57
2022/11/13 07:49:13;;;;;;;;;;;7.40;99.90;;;;;;21158417;22;19941;-54
2022/11/13 07:59:33;;;;;;;;;;;7.80;99.90;;;;;;21173450;22;20008;-56
2022/11/13 08:10:05;;;;;;;;;;;8.00;99.90;;;;;;21071774;22;20372;-57
2022/11/13 08:20:28;;;;;;;;;;;8.50;99.90;;;;;;21062150;22;20341;-58
2022/11/13 08:30:49;;;;;;;;;;;9.00;98.90;;;;;;20965709;22;19924;-58
2022/11/13 08:41:10;;;;;;;;;;;9.20;97.30;;;;;;21121990;22;19990;-58
2022/11/13 08:51:31;;;;;;;;;;;9.40;96.80;;;;;;20893641;28;19962;-58
2022/11/13 09:02:00;;;;;;;;;;;9.30;95.20;;;;;;20894113;28;19921;-58
2022/11/13 09:12:21;;;;;;;;;;;9.40;95.50;;;;;;20971259;22;19928;-58
2022/11/13 09:22:42;;;;;;;;;;;10.10;95.50;;;;;;20891255;28;19912;-58
2022/11/13 09:33:03;;;;;;;;;;;10.20;94.90;;;;;;20898226;23;20325;-59
2022/11/13 09:43:38;;;;;;;;;;;11.10;92.10;;;;;;20814625;28;20375;-59
2022/11/13 09:54:02;;;;;;;;;;;11.50;90.80;;;;;;20807590;28;20352;-59
2022/11/13 10:04:43;;;;;;;;;;;11.70;88.80;;;;;;20838400;28;19913;-59
2022/11/13 10:15:06;;;;;;;;;;;12.20;92.50;;;;;;20474998;28;20303;-59
2022/11/13 10:25:31;;;;;;;;;;;11.90;92.00;;;;;;20473841;28;19914;-58
2022/11/13 10:36:01;;;;;;;;;;;12.30;88.20;;;;;;20473436;28;19918;-59
2022/11/13 10:46:24;;;;;;;;;;;12.10;90.90;;;;;;20561951;28;19978;-59
2022/11/13 10:56:55;;;;;;;;;;;12.70;93.70;;;;;;20790393;28;20358;-60
2022/11/13 11:07:17;;;;;;;;;;;13.20;94.80;;;;;;20803774;28;19967;-59
2022/11/13 11:17:41;;;;;;;;;;;13.20;97.90;;;;;;20807837;28;19963;-59
2022/11/13 11:28:05;;;;;;;;;;;12.10;97.00;;;;;;20883902;28;20266;-59
2022/11/13 11:38:30;;;;;;;;;;;12.10;98.50;;;;;;20898744;28;20334;-59
2022/11/13 11:48:52;;;;;;;;;;;12.80;96.80;;;;;;20900155;28;19971;-60
2022/11/13 11:59:25;;;;;;;;;;;13.20;99.00;;;;;;20818209;28;19962;-60
2022/11/13 12:10:02;;;;;;;;;;;13.10;99.80;;;;;;20827491;28;19975;-59
2022/11/13 12:20:24;;;;;;;;;;;12.90;98.00;;;;;;20832970;28;19909;-58
2022/11/13 12:30:52;;;;;;;;;;;13.00;99.90;;;;;;20814327;28;19964;-60
2022/11/13 12:41:23;;;;;;;;;;;12.40;99.90;;;;;;20820042;28;20432;-59
2022/11/13 12:51:52;;;;;;;;;;;11.90;99.90;;;;;;20893978;28;19916;-59
2022/11/13 13:02:12;;;;;;;;;;;11.90;99.90;;;;;;20894328;28;20315;-60
2022/11/13 13:12:42;;;;;;;;;;;11.10;99.90;;;;;;20823969;28;19913;-59
2022/11/13 13:23:03;;;;;;;;;;;10.20;99.90;;;;;;20858567;28;19939;-59
2022/11/13 13:33:29;;;;;;;;;;;9.10;99.90;;;;;;20891368;28;20404;-60
2022/11/13 13:44:08;;;;;;;;;;;8.60;99.90;;;;;;20890222;28;20270;-60
2022/11/13 13:54:31;;;;;;;;;;;8.30;99.90;;;;;;20890076;28;20377;-60
2022/11/13 14:04:54;;;;;;;;;;;8.20;99.90;;;;;;20852352;28;19909;-60
2022/11/13 14:15:26;;;;;;;;;;;8.00;99.90;;;;;;20806315;28;19967;-60
2022/11/13 14:25:47;;;;;;;;;;;8.00;99.90;;;;;;20806225;28;20191;-60
2022/11/13 14:36:10;;;;;;;;;;;7.80;99.90;;;;;;20804491;28;19935;-58
2022/11/13 14:46:38;;;;;;;;;;;7.30;99.90;;;;;;20854981;28;20381;-59
2022/11/13 14:57:07;;;;;;;;;;;6.40;99.90;;;;;;20886850;28;20251;-58
2022/11/13 15:07:30;;;;;;;;;;;5.90;99.90;;;;;;20892095;28;20366;-59
2022/11/13 15:17:51;;;;;;;;;;;5.70;99.90;;;;;;20896095;28;20389;-59
2022/11/13 15:28:12;;;;;;;;;;;5.40;99.90;;;;;;20819410;28;19912;-59
2022/11/13 15:38:33;;;;;;;;;;;5.20;99.90;;;;;;20818137;28;19913;-58
2022/11/13 15:48:54;;;;;;;;;;;5.00;99.90;;;;;;20817859;28;19975;-59
2022/11/13 15:59:15;;;;;;;;;;;4.60;99.90;;;;;;20899102;28;19913;-59
2022/11/13 16:09:36;;;;;;;;;;;4.20;99.90;;;;;;20822687;28;19967;-59
2022/11/13 16:19:57;;;;;;;;;;;4.20;99.90;;;;;;20814146;28;19936;-58
2022/11/13 16:30:20;;;;;;;;;;;3.90;99.90;;;;;;20814659;28;20435;-58
2022/11/13 16:40:44;;;;;;;;;;;3.90;99.90;;;;;;20863867;28;19921;-59
2022/11/13 16:51:05;;;;;;;;;;;3.90;99.90;;;;;;20813037;28;19947;-60
2022/11/13 17:01:27;;;;;;;;;;;3.70;99.90;;;;;;20812228;28;20333;-59
2022/11/13 17:11:48;;;;;;;;;;;3.80;99.90;;;;;;20811565;28;20365;-59
2022/11/13 17:22:12;;;;;;;;;;;4.10;99.90;;;;;;20851552;28;19908;-58
2022/11/13 17:32:33;;;;;;;;;;;4.40;99.90;;;;;;20891945;28;19917;-59
2022/11/13 17:42:54;;;;;;;;;;;4.70;99.90;;;;;;20742867;28;19917;-60
2022/11/13 17:53:15;;;;;;;;;;;4.90;99.90;;;;;;20741986;28;19983;-60
2022/11/13 18:03:36;;;;;;;;;;;5.00;99.90;;;;;;20716111;28;19956;-58
2022/11/13 18:13:56;;;;;;;;;;;5.00;99.90;;;;;;20660314;28;19913;-59
2022/11/13 18:24:19;;;;;;;;;;;5.00;99.90;;;;;;20660001;28;20369;-58
2022/11/13 18:34:39;;;;;;;;;;;5.00;99.90;;;;;;20688992;28;20263;-59
2022/11/13 18:45:01;;;;;;;;;;;4.90;99.90;;;;;;20842770;28;19917;-59
2022/11/13 18:55:22;;;;;;;;;;;4.90;99.90;;;;;;20886062;28;19917;-58
2022/11/13 19:05:43;;;;;;;;;;;4.90;99.90;;;;;;20885937;28;19909;-59
2022/11/13 19:16:04;;;;;;;;;;;4.80;99.90;;;;;;20886038;28;19917;-59
2022/11/13 19:26:26;;;;;;;;;;;4.80;99.90;;;;;;20809204;28;19975;-59
2022/11/13 19:36:50;;;;;;;;;;;4.80;99.90;;;;;;20802944;28;20542;-59
2022/11/13 19:47:11;;;;;;;;;;;4.90;99.90;;;;;;20868852;28;19978;-58
2022/11/13 19:57:32;;;;;;;;;;;4.90;99.90;;;;;;20825542;28;19963;-59
2022/11/13 20:07:57;;;;;;;;;;;4.80;99.90;;;;;;20877534;28;19935;-55
2022/11/13 20:18:18;;;;;;;;;;;4.70;99.90;;;;;;20898374;28;19966;-58
2022/11/13 20:28:38;;;;;;;;;;;4.50;99.90;;;;;;20913256;28;19970;-57
2022/11/13 20:39:00;;;;;;;;;;;4.50;99.90;;;;;;20895684;28;19913;-57
2022/11/13 20:49:22;;;;;;;;;;;4.30;99.90;;;;;;20822464;28;19917;-58
2022/11/13 20:59:43;;;;;;;;;;;4.30;99.90;;;;;;20812671;28;19967;-55
2022/11/13 21:10:04;;;;;;;;;;;4.30;99.90;;;;;;20811619;28;19917;-58
2022/11/13 21:20:25;;;;;;;;;;;4.20;99.90;;;;;;20837461;28;19912;-54
2022/11/13 21:30:46;;;;;;;;;;;4.20;99.90;;;;;;20892652;28;19913;-59
2022/11/13 21:41:22;;;;;;;;;;;4.10;99.90;;;;;;20890590;28;19921;-51
2022/11/13 21:51:43;;;;;;;;;;;4.10;99.90;;;;;;20889871;28;20068;-49
2022/11/13 22:02:04;;;;;;;;;;;4.10;99.90;;;;;;20876285;28;19909;-57
2022/11/13 22:12:24;;;;;;;;;;;4.10;99.90;;;;;;20807331;28;19913;-58
2022/11/13 22:22:48;;;;;;;;;;;4.00;99.90;;;;;;20806060;28;19917;-57
2022/11/13 22:33:09;;;;;;;;;;;3.70;99.90;;;;;;20805622;28;19913;-51
2022/11/13 22:43:32;;;;;;;;;;;3.60;99.90;;;;;;20830917;28;20419;-54
2022/11/13 22:53:59;;;;;;;;;;;3.60;99.90;;;;;;20886142;28;19970;-57
2022/11/13 23:04:21;;;;;;;;;;;3.50;99.90;;;;;;20885621;28;19912;-56
2022/11/13 23:14:42;;;;;;;;;;;3.60;99.90;;;;;;20886120;28;19917;-55
2022/11/13 23:25:03;;;;;;;;;;;3.60;99.90;;;;;;20821608;28;19909;-59
2022/11/13 23:35:23;;;;;;;;;;;3.60;99.90;;;;;;20827985;28;19958;-50
2022/11/13 23:45:44;;;;;;;;;;;3.60;99.90;;;;;;20900737;28;19962;-58
2022/11/13 23:56:05;;;;;;;;;;;3.70;99.90;;;;;;20899074;28;19920;-57
